Aérodrome :
LOGIN :

S'inscrire | Disclaimer

   EN    FR    IT 

 










Légende :    VFR   VFR Marginal   IFR   IFR Intensif   IFR Très Intensif
Visi : 
Plafond : 
>= 8 km
>= 3000ft
5 à 8 km
1000 à 3000 ft
1500m à 5 km
500 à 1000 ft
800 à 1500m
200 à 500 ft
< 800m
< 200 ft
Symboles :   Orages  Brouillard  Fortes neiges  Fortes précipitations  Vent > 20 kt
SIGMETs :   Divers  Orages  Givrage  Turbulence  Onde Orograph.  Cendres Volcan.







- Altitude de l'aérodrome : 781 ft
- Code IATA : SKP


LWSK - Skopje

DERNIER METAR :
  • 210100Z 08004KT 9999 -DZ SCT046 BKN090 16/14 Q1017 NOSIG

METARs EXPIRÉS :
  • 210030Z 10006KT 9999 -DZ SCT046 BKN090 17/14 Q1017 NOSIG
  • 210000Z 11006KT 9999 DZ SCT046 BKN090 18/14 Q1017 NOSIG
  • 202300Z 13006KT 9999 SCT046 BKN090 19/14 Q1017 NOSIG
  • 202230Z 13006KT 9999 SCT046 BKN090 19/14 Q1017 NOSIG
  • 202200Z 12007KT 9999 SCT036 SCT080 19/14 Q1017 NOSIG

TAF TAF LWSK
Valide du 21 à 00h jusqu'au 22 à 00h UTC


202330Z 2100/2124 VRB02KT 9999 SCT040 BKN100
PROB30
TEMPO 2100/2102 VRB12KT SHRA FEW035CB
BECMG 2109/2111 16010KT
TEMPO 2112/2118 VRB20KT TSRA SCT035CB BKN040
Pas de NOTAMs connus pour ce terrain.



MET'MAP, la Météo Aéronautique d'un coup d'oeil ! - Copyright ORBIFLY Décembre 2007 - Disclaimer

ORBIFLY MET'MAP TEAM :

Programmation & Développement : Alexandra Zaïnal
Conception & Développement : Baudouin d'Aumeries
Co-Programmation & Développement : Marc-Olivier Méhu
Soutien technique & logistique : Manuel Goepfert

Contact : metmap@orbifly.com




SOURCES & CREDITS :

   NOAA